sensor_id;sensor_type;location;lat;lon;timestamp;P1;durP1;ratioP1;P2;durP2;ratioP2
25153;SDS011;47555;51.038;6.280;2022-12-29T00:02:07;0.60;;;0.60;;
25153;SDS011;47555;51.038;6.280;2022-12-29T00:04:33;0.65;;;0.65;;
25153;SDS011;47555;51.038;6.280;2022-12-29T00:06:59;0.95;;;0.60;;
25153;SDS011;47555;51.038;6.280;2022-12-29T00:09:25;0.80;;;0.73;;
25153;SDS011;47555;51.038;6.280;2022-12-29T00:11:51;0.60;;;0.60;;
25153;SDS011;47555;51.038;6.280;2022-12-29T00:14:17;1.67;;;0.50;;
25153;SDS011;47555;51.038;6.280;2022-12-29T00:17:01;0.60;;;0.60;;
25153;SDS011;47555;51.038;6.280;2022-12-29T00:19:27;1.30;;;0.60;;
25153;SDS011;47555;51.038;6.280;2022-12-29T00:22:12;1.98;;;0.50;;
25153;SDS011;47555;51.038;6.280;2022-12-29T00:24:57;0.80;;;0.60;;
25153;SDS011;47555;51.038;6.280;2022-12-29T00:27:41;0.68;;;0.68;;
25153;SDS011;47555;51.038;6.280;2022-12-29T00:30:26;0.77;;;0.77;;
25153;SDS011;47555;51.038;6.280;2022-12-29T00:33:11;0.50;;;0.50;;
25153;SDS011;47555;51.038;6.280;2022-12-29T00:36:13;1.42;;;0.60;;
25153;SDS011;47555;51.038;6.280;2022-12-29T00:38:55;0.60;;;0.60;;
25153;SDS011;47555;51.038;6.280;2022-12-29T00:41:42;0.65;;;0.65;;
25153;SDS011;47555;51.038;6.280;2022-12-29T00:44:26;1.33;;;0.60;;
25153;SDS011;47555;51.038;6.280;2022-12-29T00:46:52;0.50;;;0.50;;
25153;SDS011;47555;51.038;6.280;2022-12-29T00:49:18;0.70;;;0.50;;
25153;SDS011;47555;51.038;6.280;2022-12-29T00:51:56;0.60;;;0.60;;
25153;SDS011;47555;51.038;6.280;2022-12-29T00:54:24;0.40;;;0.40;;
25153;SDS011;47555;51.038;6.280;2022-12-29T00:56:50;0.70;;;0.70;;
25153;SDS011;47555;51.038;6.280;2022-12-29T00:59:17;1.85;;;0.50;;
25153;SDS011;47555;51.038;6.280;2022-12-29T01:01:43;0.60;;;0.60;;
25153;SDS011;47555;51.038;6.280;2022-12-29T01:04:09;0.47;;;0.47;;
25153;SDS011;47555;51.038;6.280;2022-12-29T01:06:36;0.50;;;0.50;;
25153;SDS011;47555;51.038;6.280;2022-12-29T01:09:03;0.50;;;0.50;;
25153;SDS011;47555;51.038;6.280;2022-12-29T01:11:48;0.55;;;0.55;;
25153;SDS011;47555;51.038;6.280;2022-12-29T01:14:14;0.60;;;0.60;;
25153;SDS011;47555;51.038;6.280;2022-12-29T01:16:40;0.95;;;0.70;;
25153;SDS011;47555;51.038;6.280;2022-12-29T01:19:05;0.60;;;0.60;;
25153;SDS011;47555;51.038;6.280;2022-12-29T01:21:32;1.27;;;0.68;;
25153;SDS011;47555;51.038;6.280;2022-12-29T01:23:57;1.25;;;0.60;;
25153;SDS011;47555;51.038;6.280;2022-12-29T01:26:23;1.70;;;0.70;;
25153;SDS011;47555;51.038;6.280;2022-12-29T01:28:49;0.60;;;0.60;;
25153;SDS011;47555;51.038;6.280;2022-12-29T01:31:14;0.68;;;0.63;;
25153;SDS011;47555;51.038;6.280;2022-12-29T01:33:40;1.25;;;0.70;;
25153;SDS011;47555;51.038;6.280;2022-12-29T01:36:08;1.00;;;0.60;;
25153;SDS011;47555;51.038;6.280;2022-12-29T01:38:35;0.65;;;0.65;;
25153;SDS011;47555;51.038;6.280;2022-12-29T01:41:02;0.90;;;0.75;;
25153;SDS011;47555;51.038;6.280;2022-12-29T01:43:39;1.35;;;0.75;;
25153;SDS011;47555;51.038;6.280;2022-12-29T01:51:27;2.25;;;0.70;;
25153;SDS011;47555;51.038;6.280;2022-12-29T01:53:55;1.40;;;0.70;;
25153;SDS011;47555;51.038;6.280;2022-12-29T01:56:23;1.65;;;0.70;;
25153;SDS011;47555;51.038;6.280;2022-12-29T01:58:50;0.95;;;0.70;;
25153;SDS011;47555;51.038;6.280;2022-12-29T02:01:24;1.02;;;0.88;;
25153;SDS011;47555;51.038;6.280;2022-12-29T02:03:49;2.15;;;0.95;;
25153;SDS011;47555;51.038;6.280;2022-12-29T02:06:18;1.92;;;0.80;;
25153;SDS011;47555;51.038;6.280;2022-12-29T02:08:52;3.08;;;1.20;;
25153;SDS011;47555;51.038;6.280;2022-12-29T02:11:20;0.93;;;0.70;;
25153;SDS011;47555;51.038;6.280;2022-12-29T02:13:48;2.38;;;0.80;;
25153;SDS011;47555;51.038;6.280;2022-12-29T02:16:31;2.42;;;0.80;;
25153;SDS011;47555;51.038;6.280;2022-12-29T02:32:36;2.45;;;0.90;;
25153;SDS011;47555;51.038;6.280;2022-12-29T02:35:35;1.25;;;0.80;;
25153;SDS011;47555;51.038;6.280;2022-12-29T02:46:44;1.25;;;0.88;;
25153;SDS011;47555;51.038;6.280;2022-12-29T02:51:54;1.05;;;0.77;;
25153;SDS011;47555;51.038;6.280;2022-12-29T02:54:35;0.85;;;0.80;;
25153;SDS011;47555;51.038;6.280;2022-12-29T02:59:45;1.17;;;0.80;;
25153;SDS011;47555;51.038;6.280;2022-12-29T03:11:00;1.98;;;0.75;;
25153;SDS011;47555;51.038;6.280;2022-12-29T03:13:52;1.00;;;0.80;;
25153;SDS011;47555;51.038;6.280;2022-12-29T03:16:53;0.85;;;0.63;;
25153;SDS011;47555;51.038;6.280;2022-12-29T03:19:25;0.82;;;0.60;;
25153;SDS011;47555;51.038;6.280;2022-12-29T03:24:45;0.50;;;0.50;;
25153;SDS011;47555;51.038;6.280;2022-12-29T03:27:14;1.33;;;0.60;;
25153;SDS011;47555;51.038;6.280;2022-12-29T03:29:48;0.50;;;0.50;;
25153;SDS011;47555;51.038;6.280;2022-12-29T03:32:21;0.50;;;0.50;;
25153;SDS011;47555;51.038;6.280;2022-12-29T03:34:50;1.63;;;0.80;;
25153;SDS011;47555;51.038;6.280;2022-12-29T03:37:20;0.70;;;0.70;;
25153;SDS011;47555;51.038;6.280;2022-12-29T03:39:48;1.13;;;0.60;;
25153;SDS011;47555;51.038;6.280;2022-12-29T03:42:16;0.70;;;0.57;;
25153;SDS011;47555;51.038;6.280;2022-12-29T03:44:45;1.67;;;0.70;;
25153;SDS011;47555;51.038;6.280;2022-12-29T03:47:11;0.60;;;0.60;;
25153;SDS011;47555;51.038;6.280;2022-12-29T03:49:37;0.75;;;0.75;;
25153;SDS011;47555;51.038;6.280;2022-12-29T03:52:03;1.65;;;0.70;;
25153;SDS011;47555;51.038;6.280;2022-12-29T03:54:29;0.50;;;0.50;;
25153;SDS011;47555;51.038;6.280;2022-12-29T03:56:55;3.38;;;0.77;;
25153;SDS011;47555;51.038;6.280;2022-12-29T03:59:21;1.23;;;0.90;;
25153;SDS011;47555;51.038;6.280;2022-12-29T04:01:46;0.80;;;0.80;;
25153;SDS011;47555;51.038;6.280;2022-12-29T04:04:12;1.48;;;0.70;;
25153;SDS011;47555;51.038;6.280;2022-12-29T04:06:38;1.10;;;0.80;;
25153;SDS011;47555;51.038;6.280;2022-12-29T04:09:03;1.15;;;0.73;;
25153;SDS011;47555;51.038;6.280;2022-12-29T04:11:29;2.03;;;0.75;;
25153;SDS011;47555;51.038;6.280;2022-12-29T04:13:54;3.42;;;0.95;;
25153;SDS011;47555;51.038;6.280;2022-12-29T04:16:20;1.33;;;0.95;;
25153;SDS011;47555;51.038;6.280;2022-12-29T04:18:46;2.42;;;0.90;;
25153;SDS011;47555;51.038;6.280;2022-12-29T04:21:11;0.80;;;0.80;;
25153;SDS011;47555;51.038;6.280;2022-12-29T04:23:37;1.63;;;0.98;;
25153;SDS011;47555;51.038;6.280;2022-12-29T04:26:04;0.70;;;0.70;;
25153;SDS011;47555;51.038;6.280;2022-12-29T04:28:32;1.73;;;0.75;;
25153;SDS011;47555;51.038;6.280;2022-12-29T04:30:57;4.18;;;0.90;;
25153;SDS011;47555;51.038;6.280;2022-12-29T04:33:24;1.10;;;0.57;;
25153;SDS011;47555;51.038;6.280;2022-12-29T04:35:50;1.73;;;0.90;;
25153;SDS011;47555;51.038;6.280;2022-12-29T04:38:17;0.60;;;0.60;;
25153;SDS011;47555;51.038;6.280;2022-12-29T04:40:43;0.77;;;0.70;;
25153;SDS011;47555;51.038;6.280;2022-12-29T04:43:09;1.00;;;0.90;;
25153;SDS011;47555;51.038;6.280;2022-12-29T04:45:35;2.25;;;0.80;;
25153;SDS011;47555;51.038;6.280;2022-12-29T04:48:01;1.85;;;0.98;;
25153;SDS011;47555;51.038;6.280;2022-12-29T04:50:26;1.67;;;0.85;;
25153;SDS011;47555;51.038;6.280;2022-12-29T04:52:52;0.90;;;0.77;;
25153;SDS011;47555;51.038;6.280;2022-12-29T04:55:18;1.58;;;0.80;;
25153;SDS011;47555;51.038;6.280;2022-12-29T04:57:43;1.38;;;1.08;;
25153;SDS011;47555;51.038;6.280;2022-12-29T05:00:09;1.52;;;0.60;;
25153;SDS011;47555;51.038;6.280;2022-12-29T05:02:35;1.42;;;0.68;;
25153;SDS011;47555;51.038;6.280;2022-12-29T05:05:02;0.73;;;0.60;;
25153;SDS011;47555;51.038;6.280;2022-12-29T05:07:28;1.45;;;1.38;;
25153;SDS011;47555;51.038;6.280;2022-12-29T05:09:53;1.63;;;0.90;;
25153;SDS011;47555;51.038;6.280;2022-12-29T05:12:19;0.77;;;0.60;;
25153;SDS011;47555;51.038;6.280;2022-12-29T05:14:44;1.13;;;0.65;;
25153;SDS011;47555;51.038;6.280;2022-12-29T05:17:10;0.70;;;0.70;;
25153;SDS011;47555;51.038;6.280;2022-12-29T05:19:35;2.10;;;1.00;;
25153;SDS011;47555;51.038;6.280;2022-12-29T05:22:01;1.60;;;0.88;;
25153;SDS011;47555;51.038;6.280;2022-12-29T05:24:26;1.70;;;0.70;;
25153;SDS011;47555;51.038;6.280;2022-12-29T05:26:52;2.53;;;0.77;;
25153;SDS011;47555;51.038;6.280;2022-12-29T05:29:17;1.45;;;0.70;;
25153;SDS011;47555;51.038;6.280;2022-12-29T05:31:43;2.63;;;0.60;;
25153;SDS011;47555;51.038;6.280;2022-12-29T05:34:10;2.72;;;0.73;;
25153;SDS011;47555;51.038;6.280;2022-12-29T05:36:36;1.67;;;0.80;;
25153;SDS011;47555;51.038;6.280;2022-12-29T05:39:02;0.73;;;0.73;;
25153;SDS011;47555;51.038;6.280;2022-12-29T05:41:28;1.77;;;0.70;;
25153;SDS011;47555;51.038;6.280;2022-12-29T05:43:53;2.35;;;0.80;;
25153;SDS011;47555;51.038;6.280;2022-12-29T05:46:19;1.17;;;0.60;;
25153;SDS011;47555;51.038;6.280;2022-12-29T05:48:44;2.85;;;0.90;;
25153;SDS011;47555;51.038;6.280;2022-12-29T05:51:10;1.80;;;0.70;;
25153;SDS011;47555;51.038;6.280;2022-12-29T05:53:38;1.77;;;0.70;;
25153;SDS011;47555;51.038;6.280;2022-12-29T05:56:04;2.38;;;0.65;;
25153;SDS011;47555;51.038;6.280;2022-12-29T05:58:30;2.35;;;0.88;;
25153;SDS011;47555;51.038;6.280;2022-12-29T06:00:55;1.13;;;0.50;;
25153;SDS011;47555;51.038;6.280;2022-12-29T06:03:21;2.13;;;0.70;;
25153;SDS011;47555;51.038;6.280;2022-12-29T06:05:46;2.25;;;0.70;;
25153;SDS011;47555;51.038;6.280;2022-12-29T06:08:12;1.33;;;0.70;;
25153;SDS011;47555;51.038;6.280;2022-12-29T06:10:38;1.70;;;0.75;;
25153;SDS011;47555;51.038;6.280;2022-12-29T06:13:03;1.90;;;1.45;;
25153;SDS011;47555;51.038;6.280;2022-12-29T06:15:31;2.35;;;0.70;;
25153;SDS011;47555;51.038;6.280;2022-12-29T06:17:57;2.05;;;0.80;;
25153;SDS011;47555;51.038;6.280;2022-12-29T06:20:22;2.15;;;0.65;;
25153;SDS011;47555;51.038;6.280;2022-12-29T06:22:48;1.13;;;0.70;;
25153;SDS011;47555;51.038;6.280;2022-12-29T06:25:14;1.23;;;0.73;;
25153;SDS011;47555;51.038;6.280;2022-12-29T06:27:40;2.08;;;0.77;;
25153;SDS011;47555;51.038;6.280;2022-12-29T06:30:06;1.52;;;0.80;;
25153;SDS011;47555;51.038;6.280;2022-12-29T06:32:33;2.13;;;0.60;;
25153;SDS011;47555;51.038;6.280;2022-12-29T06:34:59;2.08;;;0.70;;
25153;SDS011;47555;51.038;6.280;2022-12-29T06:37:25;2.65;;;0.70;;
25153;SDS011;47555;51.038;6.280;2022-12-29T06:39:50;1.20;;;0.55;;
25153;SDS011;47555;51.038;6.280;2022-12-29T06:42:16;3.20;;;0.63;;
25153;SDS011;47555;51.038;6.280;2022-12-29T06:44:41;4.80;;;1.45;;
25153;SDS011;47555;51.038;6.280;2022-12-29T06:47:07;1.33;;;0.50;;
25153;SDS011;47555;51.038;6.280;2022-12-29T06:49:33;2.72;;;0.80;;
25153;SDS011;47555;51.038;6.280;2022-12-29T06:51:58;3.05;;;0.95;;
25153;SDS011;47555;51.038;6.280;2022-12-29T06:54:25;2.78;;;0.70;;
25153;SDS011;47555;51.038;6.280;2022-12-29T06:56:51;2.47;;;0.88;;
25153;SDS011;47555;51.038;6.280;2022-12-29T06:59:17;5.57;;;0.88;;
25153;SDS011;47555;51.038;6.280;2022-12-29T07:01:42;2.42;;;0.63;;
25153;SDS011;47555;51.038;6.280;2022-12-29T07:04:08;2.05;;;0.60;;
25153;SDS011;47555;51.038;6.280;2022-12-29T07:06:33;1.00;;;0.70;;
25153;SDS011;47555;51.038;6.280;2022-12-29T07:08:59;3.20;;;0.88;;
25153;SDS011;47555;51.038;6.280;2022-12-29T07:11:24;1.38;;;1.17;;
25153;SDS011;47555;51.038;6.280;2022-12-29T07:13:50;5.10;;;0.90;;
25153;SDS011;47555;51.038;6.280;2022-12-29T07:16:16;1.85;;;0.82;;
25153;SDS011;47555;51.038;6.280;2022-12-29T07:18:41;3.35;;;0.98;;
25153;SDS011;47555;51.038;6.280;2022-12-29T07:21:07;2.05;;;0.80;;
25153;SDS011;47555;51.038;6.280;2022-12-29T07:23:32;4.80;;;1.00;;
25153;SDS011;47555;51.038;6.280;2022-12-29T07:26:05;4.18;;;1.17;;
25153;SDS011;47555;51.038;6.280;2022-12-29T07:28:32;3.92;;;0.82;;
25153;SDS011;47555;51.038;6.280;2022-12-29T07:31:00;3.78;;;0.82;;
25153;SDS011;47555;51.038;6.280;2022-12-29T07:33:28;2.25;;;0.90;;
25153;SDS011;47555;51.038;6.280;2022-12-29T07:35:54;1.65;;;1.00;;
25153;SDS011;47555;51.038;6.280;2022-12-29T07:38:19;1.00;;;0.55;;
25153;SDS011;47555;51.038;6.280;2022-12-29T07:40:45;1.92;;;0.80;;
25153;SDS011;47555;51.038;6.280;2022-12-29T07:43:10;4.18;;;0.98;;
25153;SDS011;47555;51.038;6.280;2022-12-29T07:45:36;3.67;;;0.95;;
25153;SDS011;47555;51.038;6.280;2022-12-29T07:48:02;3.53;;;0.80;;
25153;SDS011;47555;51.038;6.280;2022-12-29T07:50:28;5.00;;;1.10;;
25153;SDS011;47555;51.038;6.280;2022-12-29T07:52:54;4.82;;;1.02;;
25153;SDS011;47555;51.038;6.280;2022-12-29T07:55:20;2.70;;;0.80;;
25153;SDS011;47555;51.038;6.280;2022-12-29T07:57:45;2.97;;;1.10;;
25153;SDS011;47555;51.038;6.280;2022-12-29T08:00:11;4.43;;;0.90;;
25153;SDS011;47555;51.038;6.280;2022-12-29T08:02:37;3.22;;;0.90;;
25153;SDS011;47555;51.038;6.280;2022-12-29T08:05:02;2.95;;;0.77;;
25153;SDS011;47555;51.038;6.280;2022-12-29T08:07:28;3.40;;;1.05;;
25153;SDS011;47555;51.038;6.280;2022-12-29T08:09:54;4.15;;;1.20;;
25153;SDS011;47555;51.038;6.280;2022-12-29T08:12:19;4.82;;;1.10;;
25153;SDS011;47555;51.038;6.280;2022-12-29T08:14:45;3.50;;;1.02;;
25153;SDS011;47555;51.038;6.280;2022-12-29T08:17:10;3.30;;;1.15;;
25153;SDS011;47555;51.038;6.280;2022-12-29T08:19:36;2.50;;;0.85;;
25153;SDS011;47555;51.038;6.280;2022-12-29T08:22:02;3.97;;;1.20;;
25153;SDS011;47555;51.038;6.280;2022-12-29T08:24:27;2.95;;;0.90;;
25153;SDS011;47555;51.038;6.280;2022-12-29T08:26:53;4.05;;;1.05;;
25153;SDS011;47555;51.038;6.280;2022-12-29T08:29:19;5.10;;;1.10;;
25153;SDS011;47555;51.038;6.280;2022-12-29T08:31:46;2.92;;;0.93;;
25153;SDS011;47555;51.038;6.280;2022-12-29T08:34:12;3.75;;;1.05;;
25153;SDS011;47555;51.038;6.280;2022-12-29T08:36:37;3.50;;;1.23;;
25153;SDS011;47555;51.038;6.280;2022-12-29T08:39:03;4.10;;;1.23;;
25153;SDS011;47555;51.038;6.280;2022-12-29T08:41:29;3.03;;;1.40;;
25153;SDS011;47555;51.038;6.280;2022-12-29T08:43:54;6.25;;;1.13;;
25153;SDS011;47555;51.038;6.280;2022-12-29T08:46:20;5.38;;;1.27;;
25153;SDS011;47555;51.038;6.280;2022-12-29T08:48:45;7.13;;;0.90;;
25153;SDS011;47555;51.038;6.280;2022-12-29T08:51:11;1.95;;;1.10;;
25153;SDS011;47555;51.038;6.280;2022-12-29T08:53:36;4.22;;;1.10;;
25153;SDS011;47555;51.038;6.280;2022-12-29T08:56:02;3.30;;;0.90;;
25153;SDS011;47555;51.038;6.280;2022-12-29T08:58:28;2.33;;;0.90;;
25153;SDS011;47555;51.038;6.280;2022-12-29T09:00:55;4.57;;;0.90;;
25153;SDS011;47555;51.038;6.280;2022-12-29T09:03:27;2.88;;;1.23;;
25153;SDS011;47555;51.038;6.280;2022-12-29T09:05:53;4.57;;;1.00;;
25153;SDS011;47555;51.038;6.280;2022-12-29T09:08:19;5.15;;;1.23;;
25153;SDS011;47555;51.038;6.280;2022-12-29T09:10:45;4.72;;;1.00;;
25153;SDS011;47555;51.038;6.280;2022-12-29T09:13:12;4.60;;;1.38;;
25153;SDS011;47555;51.038;6.280;2022-12-29T09:15:38;2.75;;;0.90;;
25153;SDS011;47555;51.038;6.280;2022-12-29T09:18:05;3.83;;;1.05;;
25153;SDS011;47555;51.038;6.280;2022-12-29T09:20:31;5.43;;;1.63;;
25153;SDS011;47555;51.038;6.280;2022-12-29T09:22:57;5.13;;;1.08;;
25153;SDS011;47555;51.038;6.280;2022-12-29T09:25:23;5.47;;;1.10;;
25153;SDS011;47555;51.038;6.280;2022-12-29T09:27:49;2.70;;;0.90;;
25153;SDS011;47555;51.038;6.280;2022-12-29T09:30:18;3.30;;;1.10;;
25153;SDS011;47555;51.038;6.280;2022-12-29T09:32:45;4.80;;;2.25;;
25153;SDS011;47555;51.038;6.280;2022-12-29T09:35:11;3.53;;;1.23;;
25153;SDS011;47555;51.038;6.280;2022-12-29T09:37:37;2.90;;;1.23;;
25153;SDS011;47555;51.038;6.280;2022-12-29T09:40:03;3.80;;;1.10;;
25153;SDS011;47555;51.038;6.280;2022-12-29T09:42:32;3.95;;;1.33;;
25153;SDS011;47555;51.038;6.280;2022-12-29T09:45:06;4.40;;;1.05;;
25153;SDS011;47555;51.038;6.280;2022-12-29T09:47:40;4.18;;;1.05;;
25153;SDS011;47555;51.038;6.280;2022-12-29T09:50:10;3.90;;;1.13;;
25153;SDS011;47555;51.038;6.280;2022-12-29T09:52:44;5.65;;;0.90;;
25153;SDS011;47555;51.038;6.280;2022-12-29T09:55:19;4.45;;;0.98;;
25153;SDS011;47555;51.038;6.280;2022-12-29T09:57:49;7.15;;;1.10;;
25153;SDS011;47555;51.038;6.280;2022-12-29T10:03:15;5.03;;;0.93;;
25153;SDS011;47555;51.038;6.280;2022-12-29T10:11:03;5.63;;;1.15;;
25153;SDS011;47555;51.038;6.280;2022-12-29T10:13:55;6.00;;;1.33;;
25153;SDS011;47555;51.038;6.280;2022-12-29T10:24:41;3.22;;;0.90;;
25153;SDS011;47555;51.038;6.280;2022-12-29T10:27:10;2.10;;;0.90;;
25153;SDS011;47555;51.038;6.280;2022-12-29T10:29:40;10.10;;;1.27;;
25153;SDS011;47555;51.038;6.280;2022-12-29T10:32:30;3.70;;;1.10;;
25153;SDS011;47555;51.038;6.280;2022-12-29T10:35:16;4.32;;;1.67;;
25153;SDS011;47555;51.038;6.280;2022-12-29T10:43:18;6.28;;;1.17;;
25153;SDS011;47555;51.038;6.280;2022-12-29T10:46:02;4.03;;;1.02;;
25153;SDS011;47555;51.038;6.280;2022-12-29T10:48:31;3.83;;;1.50;;
25153;SDS011;47555;51.038;6.280;2022-12-29T10:50:59;8.23;;;1.20;;
25153;SDS011;47555;51.038;6.280;2022-12-29T10:53:48;2.83;;;1.00;;
25153;SDS011;47555;51.038;6.280;2022-12-29T10:56:45;3.70;;;0.90;;
25153;SDS011;47555;51.038;6.280;2022-12-29T10:59:19;5.60;;;0.88;;
25153;SDS011;47555;51.038;6.280;2022-12-29T11:04:28;3.85;;;1.33;;
25153;SDS011;47555;51.038;6.280;2022-12-29T11:07:05;12.40;;;1.10;;
25153;SDS011;47555;51.038;6.280;2022-12-29T11:09:33;6.20;;;1.40;;
25153;SDS011;47555;51.038;6.280;2022-12-29T11:12:15;5.18;;;1.38;;
25153;SDS011;47555;51.038;6.280;2022-12-29T11:15:15;6.43;;;1.35;;
25153;SDS011;47555;51.038;6.280;2022-12-29T11:17:58;5.25;;;1.10;;
25153;SDS011;47555;51.038;6.280;2022-12-29T11:22:54;4.85;;;1.00;;
25153;SDS011;47555;51.038;6.280;2022-12-29T11:25:20;8.73;;;1.20;;
25153;SDS011;47555;51.038;6.280;2022-12-29T11:27:56;3.42;;;0.98;;
25153;SDS011;47555;51.038;6.280;2022-12-29T11:30:23;5.22;;;1.63;;
25153;SDS011;47555;51.038;6.280;2022-12-29T11:32:52;5.43;;;1.38;;
25153;SDS011;47555;51.038;6.280;2022-12-29T11:35:32;4.55;;;0.93;;
25153;SDS011;47555;51.038;6.280;2022-12-29T11:37:58;3.78;;;1.25;;
25153;SDS011;47555;51.038;6.280;2022-12-29T11:40:24;4.15;;;0.98;;
25153;SDS011;47555;51.038;6.280;2022-12-29T11:42:51;2.65;;;0.90;;
25153;SDS011;47555;51.038;6.280;2022-12-29T11:45:18;5.35;;;1.10;;
25153;SDS011;47555;51.038;6.280;2022-12-29T11:47:45;2.58;;;0.80;;
25153;SDS011;47555;51.038;6.280;2022-12-29T11:50:21;8.57;;;1.55;;
25153;SDS011;47555;51.038;6.280;2022-12-29T11:52:50;6.65;;;1.17;;
25153;SDS011;47555;51.038;6.280;2022-12-29T11:56:17;3.90;;;1.77;;
25153;SDS011;47555;51.038;6.280;2022-12-29T11:58:40;2.75;;;1.08;;
25153;SDS011;47555;51.038;6.280;2022-12-29T12:01:06;5.50;;;1.05;;
25153;SDS011;47555;51.038;6.280;2022-12-29T12:03:55;2.33;;;0.88;;
25153;SDS011;47555;51.038;6.280;2022-12-29T12:06:27;8.25;;;1.30;;
25153;SDS011;47555;51.038;6.280;2022-12-29T12:09:29;6.22;;;1.13;;
25153;SDS011;47555;51.038;6.280;2022-12-29T12:11:51;4.38;;;1.20;;
25153;SDS011;47555;51.038;6.280;2022-12-29T12:14:38;4.45;;;1.15;;
25153;SDS011;47555;51.038;6.280;2022-12-29T12:17:15;4.97;;;0.98;;
25153;SDS011;47555;51.038;6.280;2022-12-29T12:20:15;5.68;;;1.25;;
25153;SDS011;47555;51.038;6.280;2022-12-29T12:22:43;3.30;;;1.10;;
25153;SDS011;47555;51.038;6.280;2022-12-29T12:25:17;4.38;;;1.00;;
25153;SDS011;47555;51.038;6.280;2022-12-29T12:27:51;5.63;;;1.50;;
25153;SDS011;47555;51.038;6.280;2022-12-29T12:30:23;5.47;;;1.08;;
25153;SDS011;47555;51.038;6.280;2022-12-29T12:33:00;4.85;;;1.05;;
25153;SDS011;47555;51.038;6.280;2022-12-29T12:38:11;3.53;;;1.00;;
25153;SDS011;47555;51.038;6.280;2022-12-29T12:40:58;5.78;;;1.20;;
25153;SDS011;47555;51.038;6.280;2022-12-29T12:43:45;2.22;;;1.05;;
25153;SDS011;47555;51.038;6.280;2022-12-29T12:46:47;5.72;;;1.13;;
25153;SDS011;47555;51.038;6.280;2022-12-29T12:49:47;3.63;;;0.98;;
25153;SDS011;47555;51.038;6.280;2022-12-29T13:00:37;6.95;;;1.50;;
25153;SDS011;47555;51.038;6.280;2022-12-29T13:17:40;3.58;;;1.27;;
25153;SDS011;47555;51.038;6.280;2022-12-29T13:20:27;4.50;;;1.30;;
25153;SDS011;47555;51.038;6.280;2022-12-29T13:28:51;4.13;;;1.02;;
25153;SDS011;47555;51.038;6.280;2022-12-29T13:31:33;3.15;;;0.90;;
25153;SDS011;47555;51.038;6.280;2022-12-29T13:36:44;6.50;;;1.13;;
25153;SDS011;47555;51.038;6.280;2022-12-29T13:39:15;3.22;;;1.00;;
25153;SDS011;47555;51.038;6.280;2022-12-29T13:41:53;1.75;;;0.77;;
25153;SDS011;47555;51.038;6.280;2022-12-29T13:44:24;4.20;;;1.38;;
25153;SDS011;47555;51.038;6.280;2022-12-29T13:46:53;3.55;;;0.90;;
25153;SDS011;47555;51.038;6.280;2022-12-29T13:49:22;6.15;;;1.17;;
25153;SDS011;47555;51.038;6.280;2022-12-29T13:51:58;5.47;;;1.13;;
25153;SDS011;47555;51.038;6.280;2022-12-29T13:54:40;4.30;;;1.35;;
25153;SDS011;47555;51.038;6.280;2022-12-29T14:03:51;3.92;;;1.20;;
25153;SDS011;47555;51.038;6.280;2022-12-29T14:06:20;4.15;;;0.93;;
25153;SDS011;47555;51.038;6.280;2022-12-29T14:08:49;2.63;;;0.82;;
25153;SDS011;47555;51.038;6.280;2022-12-29T14:11:17;5.95;;;1.10;;
25153;SDS011;47555;51.038;6.280;2022-12-29T14:13:47;4.05;;;1.10;;
25153;SDS011;47555;51.038;6.280;2022-12-29T14:16:26;5.35;;;1.08;;
25153;SDS011;47555;51.038;6.280;2022-12-29T14:18:55;3.58;;;1.38;;
25153;SDS011;47555;51.038;6.280;2022-12-29T14:21:23;5.75;;;1.00;;
25153;SDS011;47555;51.038;6.280;2022-12-29T14:23:54;4.22;;;1.02;;
25153;SDS011;47555;51.038;6.280;2022-12-29T14:26:45;4.77;;;1.20;;
25153;SDS011;47555;51.038;6.280;2022-12-29T14:31:49;2.70;;;1.00;;
25153;SDS011;47555;51.038;6.280;2022-12-29T14:34:25;5.57;;;1.10;;
25153;SDS011;47555;51.038;6.280;2022-12-29T14:39:42;3.78;;;1.10;;
25153;SDS011;47555;51.038;6.280;2022-12-29T14:47:38;4.45;;;1.33;;
25153;SDS011;47555;51.038;6.280;2022-12-29T14:57:41;4.82;;;1.35;;
25153;SDS011;47555;51.038;6.280;2022-12-29T15:03:06;1.67;;;0.90;;
25153;SDS011;47555;51.038;6.280;2022-12-29T15:05:45;9.77;;;1.27;;
25153;SDS011;47555;51.038;6.280;2022-12-29T15:08:12;2.35;;;0.95;;
25153;SDS011;47555;51.038;6.280;2022-12-29T15:10:49;7.68;;;1.00;;
25153;SDS011;47555;51.038;6.280;2022-12-29T15:13:33;6.18;;;1.27;;
25153;SDS011;47555;51.038;6.280;2022-12-29T15:16:00;5.40;;;1.17;;
25153;SDS011;47555;51.038;6.280;2022-12-29T15:18:27;2.85;;;1.20;;
25153;SDS011;47555;51.038;6.280;2022-12-29T15:21:04;3.92;;;1.00;;
25153;SDS011;47555;51.038;6.280;2022-12-29T15:23:32;5.70;;;1.73;;
25153;SDS011;47555;51.038;6.280;2022-12-29T15:26:06;4.97;;;1.38;;
25153;SDS011;47555;51.038;6.280;2022-12-29T15:28:40;7.90;;;1.10;;
25153;SDS011;47555;51.038;6.280;2022-12-29T15:33:49;4.35;;;1.23;;
25153;SDS011;47555;51.038;6.280;2022-12-29T15:38:47;3.63;;;1.00;;
25153;SDS011;47555;51.038;6.280;2022-12-29T15:41:21;8.48;;;1.77;;
25153;SDS011;47555;51.038;6.280;2022-12-29T15:44:25;5.47;;;1.30;;
25153;SDS011;47555;51.038;6.280;2022-12-29T15:46:57;3.13;;;1.20;;
25153;SDS011;47555;51.038;6.280;2022-12-29T15:49:26;3.28;;;1.05;;
25153;SDS011;47555;51.038;6.280;2022-12-29T15:51:52;4.05;;;1.30;;
25153;SDS011;47555;51.038;6.280;2022-12-29T15:54:18;5.38;;;1.58;;
25153;SDS011;47555;51.038;6.280;2022-12-29T15:56:46;6.57;;;1.30;;
25153;SDS011;47555;51.038;6.280;2022-12-29T15:59:22;3.97;;;1.00;;
25153;SDS011;47555;51.038;6.280;2022-12-29T16:01:48;4.88;;;1.48;;
25153;SDS011;47555;51.038;6.280;2022-12-29T16:04:14;3.97;;;1.15;;
25153;SDS011;47555;51.038;6.280;2022-12-29T16:09:35;6.70;;;1.10;;
25153;SDS011;47555;51.038;6.280;2022-12-29T16:12:18;5.82;;;1.40;;
25153;SDS011;47555;51.038;6.280;2022-12-29T16:17:22;3.35;;;1.00;;
25153;SDS011;47555;51.038;6.280;2022-12-29T16:19:58;5.40;;;1.58;;
25153;SDS011;47555;51.038;6.280;2022-12-29T16:22:33;4.53;;;1.38;;
25153;SDS011;47555;51.038;6.280;2022-12-29T16:25:06;4.43;;;1.38;;
25153;SDS011;47555;51.038;6.280;2022-12-29T16:27:53;4.18;;;1.52;;
25153;SDS011;47555;51.038;6.280;2022-12-29T16:30:22;3.63;;;1.20;;
25153;SDS011;47555;51.038;6.280;2022-12-29T16:32:52;5.88;;;1.30;;
25153;SDS011;47555;51.038;6.280;2022-12-29T16:35:21;4.35;;;1.70;;
25153;SDS011;47555;51.038;6.280;2022-12-29T16:37:49;5.10;;;1.40;;
25153;SDS011;47555;51.038;6.280;2022-12-29T16:40:51;5.55;;;1.58;;
25153;SDS011;47555;51.038;6.280;2022-12-29T16:43:24;2.95;;;1.35;;
25153;SDS011;47555;51.038;6.280;2022-12-29T16:50:41;4.20;;;1.48;;
25153;SDS011;47555;51.038;6.280;2022-12-29T16:53:19;5.07;;;1.52;;
25153;SDS011;47555;51.038;6.280;2022-12-29T16:55:49;7.47;;;1.40;;
25153;SDS011;47555;51.038;6.280;2022-12-29T16:58:18;6.80;;;1.40;;
25153;SDS011;47555;51.038;6.280;2022-12-29T17:00:51;5.57;;;1.95;;
25153;SDS011;47555;51.038;6.280;2022-12-29T17:03:20;4.60;;;1.85;;
25153;SDS011;47555;51.038;6.280;2022-12-29T17:05:46;5.70;;;1.30;;
25153;SDS011;47555;51.038;6.280;2022-12-29T17:08:18;6.07;;;1.65;;
25153;SDS011;47555;51.038;6.280;2022-12-29T17:10:48;8.73;;;1.63;;
25153;SDS011;47555;51.038;6.280;2022-12-29T17:13:37;9.38;;;1.77;;
25153;SDS011;47555;51.038;6.280;2022-12-29T17:16:04;5.22;;;1.98;;
25153;SDS011;47555;51.038;6.280;2022-12-29T17:18:32;5.03;;;1.38;;
25153;SDS011;47555;51.038;6.280;2022-12-29T17:20:58;5.68;;;1.38;;
25153;SDS011;47555;51.038;6.280;2022-12-29T17:23:23;7.68;;;1.83;;
25153;SDS011;47555;51.038;6.280;2022-12-29T17:25:49;8.25;;;1.95;;
25153;SDS011;47555;51.038;6.280;2022-12-29T17:28:21;6.55;;;2.03;;
25153;SDS011;47555;51.038;6.280;2022-12-29T17:30:49;5.28;;;1.60;;
25153;SDS011;47555;51.038;6.280;2022-12-29T17:33:18;6.20;;;1.77;;
25153;SDS011;47555;51.038;6.280;2022-12-29T17:35:44;9.07;;;2.15;;
25153;SDS011;47555;51.038;6.280;2022-12-29T17:38:14;7.35;;;1.70;;